Pagina principale
METAR-TAF:

METAR-TAF

Aeroporti :

Reims, Francia

latitudine: 49-12-31N, longitudine: 004-09-24E, altezza: 95 m

Osservazione

Il bollettino è stato emesso 23 minuti fa, alle 06:00 UTC
Vento 5 kt da nord, variando fra nord-ovest e nord-est
Temperature 22°C
Umidità 78%
Pressione 1024 hPa
Visibilità 10 km o più
nessuna nube inferiore a 1500 m e nessun cumulonembo

METAR: LFQA 270600Z AUTO 01005KT 320V040 CAVOK 22/18 Q1024

Ora: 08:23 (06:23 UTC)


TAF: mancante

Osservazioni e previsioni meteorologiche di più di 4000 aeroporti (messaggi METAR e TAF).

Le stazioni disponibili sono rappresentate dai dischi gialli e rossi sulla carta.

Puntare il mouse per vedere il nome della stazione.

Clicca sopra per visualizzare le osservazioni e previsioni meteorologiche.

Per cambiare la mappa : fare clic sui pulsanti verdi con una croce nera per ingrandire, il pulsante verde con un trattino per diminuire, o sulla freccia verde per le mappe adiacenti.


METAR-TAF: